createdAt,value
2022-08-24T00:01:55.878Z,99281.38
2022-08-24T00:04:24.149Z,99270.00
2022-08-24T00:06:52.602Z,99273.50
2022-08-24T00:09:22.265Z,99282.81
2022-08-24T00:11:50.399Z,99293.38
2022-08-24T00:14:18.816Z,99297.44
2022-08-24T00:16:47.330Z,99295.34
2022-08-24T00:19:16.309Z,99288.47
2022-08-24T00:21:44.633Z,99278.78
2022-08-24T00:24:12.823Z,99289.41
2022-08-24T00:26:42.270Z,99276.78
2022-08-24T00:29:10.388Z,99289.03
2022-08-24T00:31:38.382Z,99290.91
2022-08-24T00:34:06.835Z,99284.34
2022-08-24T00:36:35.307Z,99283.75
2022-08-24T00:39:05.549Z,99287.41
2022-08-24T00:41:33.582Z,99285.50
2022-08-24T00:44:05.847Z,99287.47
2022-08-24T00:46:42.259Z,99290.91
2022-08-24T00:49:14.764Z,99290.59
2022-08-24T00:51:48.430Z,99287.31
2022-08-24T00:54:19.988Z,99288.19
2022-08-24T00:56:52.680Z,99287.94
2022-08-24T00:59:25.217Z,99279.34
2022-08-24T01:01:54.681Z,99282.47
2022-08-24T01:04:29.129Z,99290.97
2022-08-24T01:06:58.065Z,99282.56
2022-08-24T01:09:26.311Z,99286.75
2022-08-24T01:11:54.666Z,99290.03
2022-08-24T01:14:25.259Z,99297.56
2022-08-24T01:17:10.779Z,99290.81
2022-08-24T01:19:43.750Z,99300.56
2022-08-24T01:22:34.768Z,99292.06
2022-08-24T01:25:05.131Z,99300.25
2022-08-24T01:27:35.353Z,99309.94
2022-08-24T01:30:09.176Z,99286.03
2022-08-24T01:32:39.417Z,99309.59
2022-08-24T01:35:08.571Z,99308.13
2022-08-24T01:37:37.997Z,99319.97
2022-08-24T01:40:11.044Z,99318.59
2022-08-24T01:42:39.058Z,99326.19
2022-08-24T01:45:08.131Z,99320.16
2022-08-24T01:47:36.327Z,99317.13
2022-08-24T01:50:05.093Z,99306.91
2022-08-24T01:53:01.597Z,99316.22
2022-08-24T01:55:24.046Z,99307.16
2022-08-24T01:57:52.134Z,99314.47
2022-08-24T02:00:20.248Z,99312.06
2022-08-24T02:02:48.710Z,99312.81
2022-08-24T02:05:18.372Z,99307.56
2022-08-24T02:07:46.764Z,99309.25
2022-08-24T02:10:16.199Z,99306.34
2022-08-24T02:12:58.002Z,99313.84
2022-08-24T02:15:28.641Z,99315.38
2022-08-24T02:17:57.247Z,99311.34
2022-08-24T02:20:25.829Z,99305.81
2022-08-24T02:22:55.155Z,99316.50
2022-08-24T02:25:23.833Z,99321.97
2022-08-24T02:27:53.303Z,99319.88
2022-08-24T02:30:21.417Z,99312.00
2022-08-24T02:32:49.376Z,99322.28
2022-08-24T02:35:17.918Z,99325.63
2022-08-24T02:37:45.883Z,99327.47
2022-08-24T02:40:14.624Z,99336.09
2022-08-24T02:42:42.890Z,99336.91
2022-08-24T02:45:12.800Z,99327.50
2022-08-24T02:47:40.808Z,99331.88
2022-08-24T02:50:12.023Z,99327.81
2022-08-24T02:52:40.581Z,99333.56
2022-08-24T02:55:10.392Z,99339.50
2022-08-24T02:57:38.829Z,99344.38
2022-08-24T03:00:10.841Z,99342.19
2022-08-24T03:02:40.890Z,99348.38
2022-08-24T03:05:11.159Z,99352.59
2022-08-24T03:07:39.202Z,99352.25
2022-08-24T03:10:08.347Z,99345.31
2022-08-24T03:12:36.449Z,99359.13
2022-08-24T03:15:06.294Z,99367.19
2022-08-24T03:17:35.058Z,99366.53
2022-08-24T03:20:07.972Z,99365.44
2022-08-24T03:22:35.945Z,99353.84
2022-08-24T03:25:04.088Z,99354.66
2022-08-24T03:27:32.551Z,99360.09
2022-08-24T03:30:01.238Z,99359.72
2022-08-24T03:32:29.696Z,99361.78
2022-08-24T03:34:57.780Z,99367.50
2022-08-24T03:37:27.135Z,99365.06
2022-08-24T03:39:55.179Z,99367.50
2022-08-24T03:42:23.179Z,99365.13
2022-08-24T03:44:51.251Z,99363.31
2022-08-24T03:47:20.237Z,99364.59
2022-08-24T03:49:48.180Z,99361.19
2022-08-24T03:52:16.242Z,99358.78
2022-08-24T03:54:45.595Z,99354.94
2022-08-24T03:57:13.931Z,99352.28
2022-08-24T03:59:46.177Z,99356.63
2022-08-24T04:02:15.597Z,99358.19
2022-08-24T04:04:44.375Z,99368.97
2022-08-24T04:07:12.514Z,99357.88
2022-08-24T04:09:40.511Z,99355.75
2022-08-24T04:12:10.233Z,99373.59
2022-08-24T04:14:38.779Z,99365.91
2022-08-24T04:17:06.936Z,99359.66
2022-08-24T04:19:35.521Z,99365.78
2022-08-24T04:22:03.490Z,99372.94
2022-08-24T04:24:32.053Z,99362.50
2022-08-24T04:27:00.117Z,99370.06
2022-08-24T04:29:29.533Z,99372.34
2022-08-24T04:31:59.043Z,99367.19
2022-08-24T04:34:27.155Z,99363.44
2022-08-24T04:36:55.201Z,99374.28
2022-08-24T04:39:23.560Z,99371.72
2022-08-24T04:41:51.684Z,99367.41
2022-08-24T04:44:20.244Z,99383.19
2022-08-24T04:46:49.683Z,99387.47
2022-08-24T04:49:17.883Z,99377.41
2022-08-24T04:51:45.855Z,99389.75
2022-08-24T04:54:13.839Z,99384.47
2022-08-24T04:56:41.786Z,99384.78
2022-08-24T04:59:09.850Z,99393.19
2022-08-24T05:01:37.900Z,99387.66
2022-08-24T05:04:07.311Z,99383.06
2022-08-24T05:06:35.686Z,99382.78
2022-08-24T05:09:05.123Z,99365.28
2022-08-24T05:11:34.790Z,99393.38
2022-08-24T05:14:02.905Z,99387.31
2022-08-24T05:16:32.493Z,99383.88
2022-08-24T05:19:00.683Z,99378.56
2022-08-24T05:21:33.488Z,99382.09
2022-08-24T05:24:01.463Z,99387.50
2022-08-24T05:26:31.087Z,99374.63
2022-08-24T05:29:01.712Z,99382.81
2022-08-24T05:31:31.959Z,99384.91
2022-08-24T05:34:00.767Z,99386.13
2022-08-24T05:36:33.413Z,99377.34
2022-08-24T05:39:05.210Z,99383.88
2022-08-24T05:41:36.224Z,99379.41
2022-08-24T05:44:06.532Z,99384.84
2022-08-24T05:46:34.973Z,99388.13
2022-08-24T05:49:03.470Z,99390.75
2022-08-24T05:51:33.168Z,99393.97
2022-08-24T05:54:01.230Z,99395.41
2022-08-24T05:56:32.034Z,99389.50
2022-08-24T05:59:00.735Z,99392.41
2022-08-24T06:01:29.169Z,99391.63
2022-08-24T06:03:57.942Z,99385.91
2022-08-24T06:06:26.990Z,99394.13
2022-08-24T06:08:58.274Z,99395.97
2022-08-24T06:11:30.759Z,99392.84
2022-08-24T06:14:01.689Z,99384.81
2022-08-24T06:16:30.276Z,99389.16
2022-08-24T06:18:58.631Z,99387.13
2022-08-24T06:21:28.647Z,99387.50
2022-08-24T06:23:59.384Z,99383.44
2022-08-24T06:26:49.141Z,99389.59
2022-08-24T06:29:19.188Z,99390.66
2022-08-24T06:31:54.349Z,99391.28
2022-08-24T06:34:26.096Z,99399.78
2022-08-24T06:36:54.339Z,99391.59
2022-08-24T06:39:23.748Z,99387.31
2022-08-24T06:41:53.648Z,99400.03
2022-08-24T06:44:21.640Z,99393.69
2022-08-24T06:46:50.102Z,99397.19
2022-08-24T06:49:18.133Z,99394.53
2022-08-24T06:51:50.453Z,99400.28
2022-08-24T06:54:19.267Z,99388.56
2022-08-24T06:56:48.933Z,99395.75
2022-08-24T06:59:17.098Z,99392.28
2022-08-24T07:01:45.125Z,99397.41
2022-08-24T07:04:13.177Z,99394.13
2022-08-24T07:06:41.306Z,99388.38
2022-08-24T07:09:09.256Z,99390.25
2022-08-24T07:11:37.577Z,99395.19
2022-08-24T07:14:08.870Z,99396.81
2022-08-24T07:16:37.105Z,99403.78
2022-08-24T07:19:07.133Z,99395.97
2022-08-24T07:21:35.171Z,99404.19
2022-08-24T07:24:04.287Z,99401.28
2022-08-24T07:26:33.136Z,99398.00
2022-08-24T07:29:06.279Z,99393.72
2022-08-24T07:31:36.987Z,99390.22
2022-08-24T07:34:06.846Z,99396.94
2022-08-24T07:36:35.724Z,99388.75
2022-08-24T07:39:04.363Z,99394.69
2022-08-24T07:41:43.440Z,99398.56
2022-08-24T07:44:15.862Z,99403.84
2022-08-24T07:46:46.133Z,99384.34
2022-08-24T07:49:31.409Z,99396.13
2022-08-24T07:52:02.340Z,99394.69
2022-08-24T07:54:30.299Z,99393.19
2022-08-24T07:57:02.433Z,99397.50
2022-08-24T07:59:30.437Z,99396.94
2022-08-24T08:02:00.107Z,99397.47
2022-08-24T08:04:28.183Z,99403.16
2022-08-24T08:09:24.353Z,99404.84
2022-08-24T08:11:52.517Z,99405.88
2022-08-24T08:14:20.492Z,99409.81
2022-08-24T08:16:48.490Z,99409.25
2022-08-24T08:19:18.153Z,99404.47
2022-08-24T08:22:05.264Z,99404.44
2022-08-24T08:24:33.335Z,99406.59
2022-08-24T08:27:01.496Z,99405.03
2022-08-24T08:29:32.504Z,99407.31
2022-08-24T08:32:01.238Z,99403.88
2022-08-24T08:34:31.521Z,99406.06
2022-08-24T08:37:01.131Z,99407.91
2022-08-24T08:39:29.317Z,99404.75
2022-08-24T08:42:24.589Z,99394.66
2022-08-24T08:45:18.568Z,99402.72
2022-08-24T08:48:26.174Z,99406.44
2022-08-24T08:51:36.867Z,99396.31
2022-08-24T08:54:43.874Z,99399.97
2022-08-24T08:57:27.374Z,99395.66
2022-08-24T09:00:09.139Z,99401.31
2022-08-24T09:03:09.282Z,99395.81
2022-08-24T09:06:10.631Z,99391.69
2022-08-24T09:08:57.454Z,99392.88
2022-08-24T09:11:36.595Z,99387.59
2022-08-24T09:14:27.356Z,99391.44
2022-08-24T09:17:13.154Z,99386.66
2022-08-24T09:19:57.961Z,99396.72
2022-08-24T09:22:26.182Z,99396.63
2022-08-24T09:25:07.795Z,99395.94
2022-08-24T09:27:51.622Z,99384.06
2022-08-24T09:30:23.845Z,99396.03
2022-08-24T09:33:09.581Z,99391.91
2022-08-24T09:36:02.090Z,99388.56
2022-08-24T09:38:48.213Z,99387.50
2022-08-24T09:41:42.747Z,99377.78
2022-08-24T09:44:33.905Z,99372.59
2022-08-24T09:47:37.447Z,99367.25
2022-08-24T09:50:33.375Z,99355.69
2022-08-24T09:53:26.399Z,99337.16
2022-08-24T09:56:06.119Z,99352.97
2022-08-24T09:58:46.285Z,99362.41
2022-08-24T10:01:24.169Z,99351.72
2022-08-24T10:04:07.500Z,99348.88
2022-08-24T10:06:47.460Z,99342.84
2022-08-24T10:09:40.148Z,99344.88
2022-08-24T10:12:21.682Z,99325.31
2022-08-24T10:14:58.363Z,99326.50
2022-08-24T10:17:48.336Z,99314.09
2022-08-24T10:20:24.838Z,99311.00
2022-08-24T10:23:21.383Z,99305.09
2022-08-24T10:25:55.624Z,99310.19
2022-08-24T10:28:46.319Z,99307.50
2022-08-24T10:31:19.643Z,99301.47
2022-08-24T10:34:04.683Z,99307.44
2022-08-24T10:37:06.997Z,99311.63
2022-08-24T10:40:11.949Z,99312.84
2022-08-24T10:43:26.042Z,99310.66
2022-08-24T10:46:27.486Z,99295.88
2022-08-24T10:49:49.845Z,99299.94
2022-08-24T10:52:48.388Z,99295.13
2022-08-24T10:55:22.448Z,99298.75
2022-08-24T10:58:07.853Z,99293.16
2022-08-24T11:00:36.275Z,99298.59
2022-08-24T11:03:13.422Z,99292.94
2022-08-24T11:05:46.712Z,99281.25
2022-08-24T11:08:22.175Z,99293.72
2022-08-24T11:11:07.016Z,99279.91
2022-08-24T11:13:37.687Z,99281.78
2022-08-24T11:16:07.841Z,99272.47
2022-08-24T11:18:48.569Z,99286.06
2022-08-24T11:21:34.905Z,99277.56
2022-08-24T11:24:05.372Z,99276.88
2022-08-24T11:26:48.451Z,99269.47
2022-08-24T11:29:23.185Z,99269.56
2022-08-24T11:31:53.837Z,99267.56
2022-08-24T11:34:32.731Z,99261.25
2022-08-24T11:37:02.426Z,99271.44
2022-08-24T11:39:35.408Z,99268.41
2022-08-24T11:42:12.769Z,99257.38
2022-08-24T11:44:46.582Z,99266.34
2022-08-24T11:47:29.148Z,99260.72
2022-08-24T11:50:06.222Z,99246.72
2022-08-24T11:52:47.008Z,99260.22
2022-08-24T11:55:24.274Z,99253.19
2022-08-24T11:57:58.156Z,99263.66
2022-08-24T12:00:32.126Z,99260.44
2022-08-24T12:03:06.276Z,99255.56
2022-08-24T12:05:44.204Z,99257.03
2022-08-24T12:08:23.472Z,99252.81
2022-08-24T12:11:00.037Z,99247.47
2022-08-24T12:13:36.794Z,99243.28
2022-08-24T12:16:10.908Z,99251.16
2022-08-24T12:18:50.605Z,99252.00
2022-08-24T12:21:23.169Z,99250.41
2022-08-24T12:23:55.418Z,99249.97
2022-08-24T12:26:29.433Z,99249.97
2022-08-24T12:29:02.934Z,99250.56
2022-08-24T12:31:40.114Z,99243.91
2022-08-24T12:34:13.501Z,99247.97
2022-08-24T12:36:52.384Z,99240.47
2022-08-24T12:39:27.296Z,99257.13
2022-08-24T12:42:07.733Z,99255.75
2022-08-24T12:44:44.619Z,99253.03
2022-08-24T12:47:14.236Z,99242.75
2022-08-24T12:49:52.256Z,99245.50
2022-08-24T12:52:47.585Z,99238.59
2022-08-24T12:55:41.013Z,99236.72
2022-08-24T12:58:34.991Z,99228.25
2022-08-24T13:01:06.851Z,99214.63
2022-08-24T13:03:37.469Z,99210.06
2022-08-24T13:06:08.781Z,99194.84
2022-08-24T13:08:40.462Z,99209.00
2022-08-24T13:11:14.626Z,99205.78
2022-08-24T13:13:49.933Z,99204.25
2022-08-24T13:16:54.085Z,99192.72
2022-08-24T13:19:40.420Z,99201.19
2022-08-24T13:22:48.854Z,99199.31
2022-08-24T13:25:43.829Z,99195.19
2022-08-24T13:28:33.923Z,99197.13
2022-08-24T13:31:32.701Z,99189.63
2022-08-24T13:34:22.254Z,99193.13
2022-08-24T13:37:02.982Z,99188.72
2022-08-24T13:40:15.222Z,99187.84
2022-08-24T13:43:04.122Z,99184.03
2022-08-24T13:45:38.015Z,99183.19
2022-08-24T13:48:21.860Z,99179.00
2022-08-24T13:51:06.562Z,99182.47
2022-08-24T13:53:51.844Z,99184.59
2022-08-24T13:56:34.016Z,99183.16
2022-08-24T13:59:09.775Z,99178.09
2022-08-24T14:01:56.341Z,99184.03
2022-08-24T14:04:43.919Z,99175.13
2022-08-24T14:07:18.936Z,99179.97
2022-08-24T14:09:59.505Z,99176.66
2022-08-24T14:13:00.071Z,99182.31
2022-08-24T14:15:45.740Z,99180.56
2022-08-24T14:18:28.002Z,99191.19
2022-08-24T14:21:10.066Z,99187.91
2022-08-24T14:23:50.231Z,99176.50
2022-08-24T14:27:06.069Z,99174.25
2022-08-24T14:29:37.419Z,99176.91
2022-08-24T14:32:45.223Z,99169.31
2022-08-24T14:35:33.112Z,99162.31
2022-08-24T14:38:17.502Z,99159.41
2022-08-24T14:41:00.413Z,99159.00
2022-08-24T14:43:35.806Z,99149.63
2022-08-24T14:46:13.060Z,99147.72
2022-08-24T14:48:55.063Z,99156.34
2022-08-24T14:51:55.226Z,99153.28
2022-08-24T14:54:37.602Z,99154.88
2022-08-24T14:57:24.842Z,99150.81
2022-08-24T15:00:04.493Z,99146.22
2022-08-24T15:02:58.948Z,99143.75
2022-08-24T15:05:39.980Z,99144.91
2022-08-24T15:08:13.286Z,99145.94
2022-08-24T15:10:52.103Z,99142.41
2022-08-24T15:13:29.797Z,99140.03
2022-08-24T15:16:02.879Z,99136.56
2022-08-24T15:18:44.000Z,99135.34
2022-08-24T15:21:28.955Z,99142.13
2022-08-24T15:24:19.227Z,99153.88
2022-08-24T15:27:10.816Z,99163.59
2022-08-24T15:29:50.080Z,99169.22
2022-08-24T15:32:19.030Z,99167.47
2022-08-24T15:34:50.140Z,99168.16
2022-08-24T15:37:27.756Z,99171.94
2022-08-24T15:39:57.602Z,99181.50
2022-08-24T15:42:28.062Z,99174.44
2022-08-24T15:44:56.747Z,99174.94
2022-08-24T15:47:30.310Z,99175.44
2022-08-24T15:50:01.026Z,99175.13
2022-08-24T15:52:43.384Z,99173.19
2022-08-24T15:55:32.616Z,99173.44
2022-08-24T15:58:26.776Z,99181.84
2022-08-24T16:01:18.452Z,99189.22
2022-08-24T16:03:50.414Z,99191.72
2022-08-24T16:06:25.994Z,99203.06
2022-08-24T16:09:03.336Z,99205.69
2022-08-24T16:11:38.467Z,99201.53
2022-08-24T16:14:12.203Z,99202.44
2022-08-24T16:16:43.705Z,99202.75
2022-08-24T16:19:24.363Z,99200.50
2022-08-24T16:21:56.836Z,99209.69
2022-08-24T16:24:34.154Z,99209.06
2022-08-24T16:27:08.789Z,99216.56
2022-08-24T16:29:54.636Z,99226.94
2022-08-24T16:32:33.033Z,99215.47
2022-08-24T16:35:21.729Z,99221.34
2022-08-24T16:37:51.250Z,99233.34
2022-08-24T16:40:20.630Z,99234.34
2022-08-24T16:42:50.125Z,99237.34
2022-08-24T16:45:22.364Z,99238.91
2022-08-24T16:47:50.776Z,99230.38
2022-08-24T16:50:20.763Z,99236.81
2022-08-24T16:52:50.206Z,99239.50
2022-08-24T16:55:18.360Z,99242.50
2022-08-24T16:57:48.241Z,99237.22
2022-08-24T17:00:22.057Z,99245.75
2022-08-24T17:02:51.000Z,99246.09
2022-08-24T17:05:19.667Z,99247.88
2022-08-24T17:07:48.659Z,99250.66
2022-08-24T17:10:19.304Z,99257.50
2022-08-24T17:12:50.142Z,99259.69
2022-08-24T17:15:19.566Z,99262.88
2022-08-24T17:17:55.975Z,99266.63
2022-08-24T17:20:24.288Z,99259.28
2022-08-24T17:22:52.309Z,99280.09
2022-08-24T17:25:20.663Z,99272.09
2022-08-24T17:27:49.134Z,99290.25
2022-08-24T17:30:18.571Z,99292.16
2022-08-24T17:32:48.936Z,99287.50
2022-08-24T17:35:17.257Z,99291.50
2022-08-24T17:37:45.464Z,99288.69
2022-08-24T17:40:16.285Z,99283.66
2022-08-24T17:42:51.249Z,99287.03
2022-08-24T17:45:20.470Z,99293.25
2022-08-24T17:47:53.438Z,99299.84
2022-08-24T17:50:24.690Z,99306.06
2022-08-24T17:52:58.893Z,99317.09
2022-08-24T17:55:34.681Z,99308.69
2022-08-24T17:58:03.071Z,99313.81
2022-08-24T18:00:31.185Z,99304.56
2022-08-24T18:03:00.660Z,99305.03
2022-08-24T18:05:29.602Z,99301.47
2022-08-24T18:07:57.873Z,99300.03
2022-08-24T18:10:29.039Z,99301.75
2022-08-24T18:12:57.979Z,99305.03
2022-08-24T18:15:34.713Z,99305.19
2022-08-24T18:18:09.491Z,99306.72
2022-08-24T18:20:40.584Z,99304.28
2022-08-24T18:23:11.594Z,99302.66
2022-08-24T18:25:44.869Z,99296.59
2022-08-24T18:28:13.281Z,99294.13
2022-08-24T18:30:41.740Z,99286.91
2022-08-24T18:33:13.711Z,99303.66
2022-08-24T18:35:41.793Z,99303.91
2022-08-24T18:38:09.934Z,99297.72
2022-08-24T18:40:38.129Z,99288.00
2022-08-24T18:43:06.335Z,99313.59
2022-08-24T18:45:35.348Z,99304.75
2022-08-24T18:48:03.510Z,99307.91
2022-08-24T18:50:36.821Z,99324.19
2022-08-24T18:53:08.771Z,99322.25
2022-08-24T18:55:38.805Z,99318.25
2022-08-24T18:58:07.567Z,99313.34
2022-08-24T19:00:36.071Z,99306.72
2022-08-24T19:03:08.300Z,99312.44
2022-08-24T19:05:40.508Z,99303.59
2022-08-24T19:08:14.254Z,99298.34
2022-08-24T19:10:43.529Z,99307.69
2022-08-24T19:13:15.822Z,99310.13
2022-08-24T19:15:46.689Z,99309.66
2022-08-24T19:18:16.704Z,99308.97
2022-08-24T19:20:49.247Z,99304.75
2022-08-24T19:23:21.194Z,99296.94
2022-08-24T19:25:50.032Z,99302.81
2022-08-24T19:28:18.229Z,99319.31
2022-08-24T19:30:47.006Z,99334.13
2022-08-24T19:33:20.552Z,99327.59
2022-08-24T19:35:52.438Z,99340.16
2022-08-24T19:38:24.773Z,99343.66
2022-08-24T19:40:54.644Z,99332.59
2022-08-24T19:43:23.909Z,99325.47
2022-08-24T19:46:04.034Z,99342.03
2022-08-24T19:48:32.929Z,99344.94
2022-08-24T19:51:04.770Z,99349.25
2022-08-24T19:53:35.640Z,99350.16
2022-08-24T19:56:04.175Z,99349.25
2022-08-24T19:58:40.774Z,99350.53
2022-08-24T20:01:13.611Z,99354.22
2022-08-24T20:03:41.720Z,99361.47
2022-08-24T20:06:11.727Z,99368.09
2022-08-24T20:08:40.446Z,99368.22
2022-08-24T20:11:08.917Z,99375.31
2022-08-24T20:13:38.381Z,99373.69
2022-08-24T20:16:10.465Z,99376.50
2022-08-24T20:18:40.414Z,99378.59
2022-08-24T20:21:10.229Z,99376.81
2022-08-24T20:23:38.277Z,99385.78
2022-08-24T20:26:08.609Z,99383.34
2022-08-24T20:28:41.593Z,99377.13
2022-08-24T20:31:10.432Z,99381.28
2022-08-24T20:33:38.523Z,99374.41
2022-08-24T20:36:07.155Z,99376.22
2022-08-24T20:38:36.862Z,99369.91
2022-08-24T20:41:05.093Z,99375.78
2022-08-24T20:43:33.101Z,99375.66
2022-08-24T20:46:01.926Z,99378.34
2022-08-24T20:48:33.216Z,99374.00
2022-08-24T20:51:01.708Z,99375.66
2022-08-24T20:53:29.973Z,99354.88
2022-08-24T20:56:04.274Z,99371.06
2022-08-24T20:58:32.270Z,99380.41
2022-08-24T21:01:00.327Z,99367.47
2022-08-24T21:03:28.470Z,99380.03
2022-08-24T21:05:56.907Z,99357.69
2022-08-24T21:08:25.877Z,99370.75
2022-08-24T21:10:54.676Z,99360.06
2022-08-24T21:13:24.032Z,99361.59
2022-08-24T21:15:52.959Z,99367.16
2022-08-24T21:18:21.493Z,99367.03
2022-08-24T21:21:03.267Z,99362.13
2022-08-24T21:23:33.360Z,99356.97
2022-08-24T21:26:03.182Z,99335.38
2022-08-24T21:28:32.971Z,99350.56
2022-08-24T21:31:05.685Z,99340.53
2022-08-24T21:33:52.192Z,99330.53
2022-08-24T21:36:23.419Z,99327.28
2022-08-24T21:38:53.518Z,99330.47
2022-08-24T21:41:21.827Z,99304.72
2022-08-24T21:43:52.279Z,99325.19
2022-08-24T21:46:20.552Z,99319.97
2022-08-24T21:48:48.597Z,99324.59
2022-08-24T21:51:16.554Z,99320.63
2022-08-24T21:53:44.538Z,99324.88
2022-08-24T21:56:12.510Z,99313.59
2022-08-24T21:58:40.454Z,99314.28
2022-08-24T22:01:09.908Z,99311.94
2022-08-24T22:03:40.363Z,99311.00
2022-08-24T22:06:09.752Z,99312.75
2022-08-24T22:08:38.696Z,99306.81
2022-08-24T22:11:07.471Z,99311.66
2022-08-24T22:13:36.611Z,99304.69
2022-08-24T22:16:05.752Z,99304.31
2022-08-24T22:18:35.897Z,99311.44
2022-08-24T22:21:08.019Z,99310.38
2022-08-24T22:23:36.302Z,99324.59
2022-08-24T22:26:05.755Z,99336.47
2022-08-24T22:28:34.304Z,99356.38
2022-08-24T22:31:02.632Z,99362.56
2022-08-24T22:33:30.920Z,99358.44
2022-08-24T22:36:00.279Z,99368.50
2022-08-24T22:38:28.315Z,99355.25
2022-08-24T22:40:56.538Z,99334.50
2022-08-24T22:43:44.552Z,99300.41
2022-08-24T22:46:12.839Z,99277.59
2022-08-24T22:48:40.924Z,99276.44
2022-08-24T22:51:10.998Z,99283.22
2022-08-24T22:53:39.545Z,99284.84
2022-08-24T22:56:16.111Z,99283.88
2022-08-24T22:58:44.608Z,99286.31
2022-08-24T23:01:20.059Z,99283.47
2022-08-24T23:03:49.842Z,99281.63
2022-08-24T23:06:20.451Z,99280.59
2022-08-24T23:08:48.927Z,99278.16
2022-08-24T23:11:18.502Z,99290.63
2022-08-24T23:13:46.591Z,99302.97
2022-08-24T23:16:14.889Z,99320.19
2022-08-24T23:19:00.366Z,99321.00
2022-08-24T23:21:29.995Z,99316.69
2022-08-24T23:23:58.176Z,99313.41
2022-08-24T23:26:26.204Z,99308.69
2022-08-24T23:28:54.346Z,99299.69
2022-08-24T23:31:23.051Z,99299.91
2022-08-24T23:33:51.183Z,99299.09
2022-08-24T23:36:21.467Z,99318.50
2022-08-24T23:38:52.602Z,99325.28
2022-08-24T23:41:23.481Z,99311.16
2022-08-24T23:43:51.432Z,99299.69
2022-08-24T23:46:19.862Z,99299.50
2022-08-24T23:48:55.139Z,99290.88
2022-08-24T23:51:23.982Z,99288.22
2022-08-24T23:53:53.587Z,99283.31
2022-08-24T23:56:25.355Z,99293.34
2022-08-24T23:58:54.163Z,99298.88
